createdAt,value
2023-02-16T00:00:59.544Z,99.90
2023-02-16T00:06:01.198Z,99.90
2023-02-16T00:11:29.322Z,99.90
2023-02-16T00:16:31.144Z,99.90
2023-02-16T00:21:32.822Z,99.90
2023-02-16T00:26:35.183Z,99.90
2023-02-16T00:31:36.930Z,99.90
2023-02-16T00:36:38.649Z,99.90
2023-02-16T00:41:52.274Z,99.90
2023-02-16T00:46:54.320Z,99.90
2023-02-16T00:51:56.326Z,99.90
2023-02-16T00:56:58.086Z,99.90
2023-02-16T01:01:59.757Z,99.90
2023-02-16T01:07:19.883Z,99.90
2023-02-16T01:12:22.079Z,99.90
2023-02-16T01:17:24.806Z,99.90
2023-02-16T01:22:26.841Z,99.90
2023-02-16T01:27:38.946Z,99.90
2023-02-16T01:32:40.649Z,99.90
2023-02-16T01:37:42.343Z,99.90
2023-02-16T01:43:00.873Z,99.90
2023-02-16T01:48:10.702Z,99.90
2023-02-16T01:53:26.186Z,99.90
2023-02-16T01:58:43.119Z,99.90
2023-02-16T02:04:03.337Z,99.90
2023-02-16T02:09:25.654Z,99.90
2023-02-16T02:14:35.456Z,99.90
2023-02-16T02:19:57.080Z,99.90
2023-02-16T02:25:04.817Z,99.90
2023-02-16T02:30:47.465Z,99.90
2023-02-16T02:35:58.529Z,99.90
2023-02-16T02:41:23.767Z,99.90
2023-02-16T02:46:33.361Z,99.90
2023-02-16T02:51:40.164Z,99.90
2023-02-16T02:57:06.516Z,99.90
2023-02-16T03:02:08.767Z,99.90
2023-02-16T03:07:12.462Z,99.90
2023-02-16T03:12:33.624Z,99.90
2023-02-16T03:17:56.611Z,99.90
2023-02-16T03:23:17.760Z,99.90
2023-02-16T03:28:41.574Z,99.90
2023-02-16T03:33:43.608Z,99.90
2023-02-16T03:38:45.383Z,99.90
2023-02-16T03:43:47.036Z,99.90
2023-02-16T03:48:48.811Z,99.90
2023-02-16T03:53:51.456Z,99.90
2023-02-16T03:58:53.354Z,99.90
2023-02-16T04:03:55.164Z,99.90
2023-02-16T04:08:56.913Z,99.90
2023-02-16T04:13:58.589Z,99.90
2023-02-16T04:19:00.268Z,99.90
2023-02-16T04:24:02.594Z,99.90
2023-02-16T04:29:04.300Z,99.90
2023-02-16T04:34:06.228Z,99.90
2023-02-16T04:39:07.900Z,99.90
2023-02-16T04:44:09.736Z,99.90
2023-02-16T04:49:11.465Z,99.90
2023-02-16T04:54:13.196Z,99.90
2023-02-16T04:59:16.006Z,99.90
2023-02-16T05:04:17.678Z,99.90
2023-02-16T05:09:19.383Z,99.90
2023-02-16T05:14:45.454Z,99.90
2023-02-16T05:19:52.589Z,99.90
2023-02-16T05:24:54.384Z,99.90
2023-02-16T05:29:56.487Z,99.90
2023-02-16T05:34:58.169Z,99.90
2023-02-16T05:39:59.858Z,99.90
2023-02-16T05:45:02.382Z,99.90
2023-02-16T05:50:04.502Z,99.90
2023-02-16T05:55:06.367Z,99.90
2023-02-16T06:00:08.715Z,99.90
2023-02-16T06:05:10.421Z,99.90
2023-02-16T06:10:12.173Z,99.90
2023-02-16T06:15:13.851Z,99.90
2023-02-16T06:20:15.546Z,99.90
2023-02-16T06:25:20.216Z,99.90
2023-02-16T06:30:22.277Z,99.90
2023-02-16T06:35:23.960Z,99.90
2023-02-16T06:40:25.981Z,99.90
2023-02-16T06:45:27.714Z,99.90
2023-02-16T06:50:29.375Z,99.90
2023-02-16T06:55:34.269Z,99.90
2023-02-16T07:00:36.024Z,99.90
2023-02-16T07:05:37.907Z,99.90
2023-02-16T07:10:50.176Z,99.90
2023-02-16T07:15:52.304Z,99.90
2023-02-16T07:20:53.989Z,99.90
2023-02-16T07:25:55.628Z,99.90
2023-02-16T07:30:57.326Z,99.90
2023-02-16T07:35:59.032Z,99.90
2023-02-16T07:41:00.886Z,99.90
2023-02-16T07:46:02.734Z,99.90
2023-02-16T07:51:05.037Z,99.90
2023-02-16T07:56:07.004Z,99.90
2023-02-16T08:01:10.561Z,99.90
2023-02-16T08:06:12.510Z,99.90
2023-02-16T08:11:23.003Z,99.90
2023-02-16T08:16:27.193Z,99.90
2023-02-16T08:21:31.952Z,99.90
2023-02-16T08:26:39.587Z,99.60
2023-02-16T08:31:42.008Z,98.40
2023-02-16T08:36:45.675Z,94.40
2023-02-16T08:41:49.772Z,92.70
2023-02-16T08:46:53.645Z,92.00
2023-02-16T08:51:58.328Z,90.80
2023-02-16T08:57:02.728Z,90.10
2023-02-16T09:02:04.871Z,87.20
2023-02-16T09:07:06.560Z,84.40
2023-02-16T09:12:08.261Z,83.50
2023-02-16T09:17:09.948Z,80.70
2023-02-16T09:22:12.053Z,78.60
2023-02-16T09:27:13.719Z,75.00
2023-02-16T09:32:15.600Z,75.40
2023-02-16T09:37:17.259Z,72.30
2023-02-16T09:42:50.804Z,69.80
2023-02-16T09:47:55.098Z,66.90
2023-02-16T09:53:05.655Z,62.30
2023-02-16T09:58:19.128Z,62.40
2023-02-16T10:03:41.409Z,62.80
2023-02-16T10:08:53.847Z,62.80
2023-02-16T10:13:59.043Z,61.40
2023-02-16T10:19:05.820Z,60.60
2023-02-16T10:24:07.964Z,58.60
2023-02-16T10:29:19.110Z,59.80
2023-02-16T10:34:49.467Z,59.70
2023-02-16T10:40:29.135Z,57.90
2023-02-16T10:45:31.886Z,57.20
2023-02-16T10:50:39.940Z,57.20
2023-02-16T10:55:41.761Z,58.40
2023-02-16T11:01:08.503Z,57.90
2023-02-16T11:06:23.055Z,57.90
2023-02-16T11:11:29.337Z,58.50
2023-02-16T11:16:31.927Z,58.60
2023-02-16T11:21:50.234Z,59.30
2023-02-16T11:27:20.729Z,58.40
2023-02-16T11:32:22.488Z,58.40
2023-02-16T11:37:33.332Z,56.80
2023-02-16T11:42:44.461Z,56.20
2023-02-16T11:48:00.953Z,54.60
2023-02-16T11:53:16.448Z,56.30
2023-02-16T11:58:27.706Z,53.90
2023-02-16T12:04:12.799Z,56.00
2023-02-16T12:09:35.878Z,54.70
2023-02-16T12:14:56.316Z,55.70
2023-02-16T12:20:25.717Z,54.10
2023-02-16T12:25:37.743Z,53.70
2023-02-16T12:30:45.428Z,54.80
2023-02-16T12:36:20.174Z,55.60
2023-02-16T12:41:47.354Z,55.80
2023-02-16T12:46:58.116Z,57.50
2023-02-16T12:52:10.003Z,58.80
2023-02-16T12:57:15.822Z,59.00
2023-02-16T13:02:31.071Z,59.60
2023-02-16T13:07:42.982Z,59.90
2023-02-16T13:13:10.622Z,61.20
2023-02-16T13:18:22.987Z,60.90
2023-02-16T13:23:59.448Z,61.40
2023-02-16T13:29:33.195Z,61.10
2023-02-16T13:34:53.689Z,60.70
2023-02-16T13:39:58.421Z,60.40
2023-02-16T13:45:04.240Z,62.20
2023-02-16T13:50:09.687Z,63.70
2023-02-16T13:55:31.687Z,65.00
2023-02-16T14:00:45.312Z,67.00
2023-02-16T14:05:52.185Z,67.20
2023-02-16T14:10:53.895Z,67.70
2023-02-16T14:15:59.422Z,66.70
2023-02-16T14:21:04.331Z,66.70
2023-02-16T14:26:08.509Z,67.10
2023-02-16T14:31:18.170Z,67.00
2023-02-16T14:36:24.206Z,68.00
2023-02-16T14:41:34.523Z,67.90
2023-02-16T14:47:21.749Z,69.30
2023-02-16T14:53:10.683Z,69.50
2023-02-16T14:58:25.894Z,69.40
2023-02-16T15:03:41.767Z,70.70
2023-02-16T15:08:48.948Z,70.90
2023-02-16T15:13:53.313Z,70.70
2023-02-16T15:18:56.840Z,71.00
2023-02-16T15:24:00.733Z,72.30
2023-02-16T15:29:22.623Z,73.00
2023-02-16T15:34:30.663Z,73.50
2023-02-16T15:39:48.433Z,74.30
2023-02-16T15:44:57.338Z,74.30
2023-02-16T15:50:12.233Z,74.60
2023-02-16T15:55:14.038Z,74.90
2023-02-16T16:00:19.461Z,75.70
2023-02-16T16:05:35.533Z,76.00
2023-02-16T16:10:41.285Z,76.80
2023-02-16T16:15:46.547Z,75.90
2023-02-16T16:20:59.007Z,75.60
2023-02-16T16:26:00.641Z,75.10
2023-02-16T16:31:31.258Z,75.30
2023-02-16T16:36:53.275Z,75.70
2023-02-16T16:42:00.958Z,76.00
2023-02-16T16:47:35.336Z,76.50
2023-02-16T16:52:46.276Z,76.70
2023-02-16T16:57:53.353Z,76.40
2023-02-16T17:02:55.072Z,76.00
2023-02-16T17:07:56.856Z,74.70
2023-02-16T17:13:00.010Z,75.70
2023-02-16T17:18:02.417Z,75.70
2023-02-16T17:23:05.022Z,75.60
2023-02-16T17:28:07.196Z,75.30
2023-02-16T17:33:10.024Z,75.60
2023-02-16T17:38:19.657Z,76.00
2023-02-16T17:43:22.269Z,75.70
2023-02-16T17:48:28.350Z,76.30
2023-02-16T17:53:30.194Z,75.50
2023-02-16T17:58:31.891Z,75.70
2023-02-16T18:03:33.622Z,75.70
2023-02-16T18:08:35.287Z,75.80
2023-02-16T18:13:36.992Z,75.90
2023-02-16T18:18:39.367Z,75.50
2023-02-16T18:23:41.216Z,75.60
2023-02-16T18:28:43.558Z,75.60
2023-02-16T18:33:45.243Z,75.90
2023-02-16T18:38:46.983Z,76.30
2023-02-16T18:43:48.688Z,76.60
2023-02-16T18:48:50.454Z,76.80
2023-02-16T18:53:52.151Z,77.30
2023-02-16T18:58:54.348Z,77.70
2023-02-16T19:03:56.849Z,77.90
2023-02-16T19:08:59.849Z,78.40
2023-02-16T19:14:01.550Z,78.60
2023-02-16T19:19:03.432Z,78.90
2023-02-16T19:24:05.426Z,78.50
2023-02-16T19:29:07.694Z,78.60
2023-02-16T19:34:09.491Z,79.20
2023-02-16T19:39:12.589Z,79.40
2023-02-16T19:44:14.757Z,79.70
2023-02-16T19:49:17.121Z,80.00
2023-02-16T19:54:18.788Z,80.00
2023-02-16T19:59:20.495Z,80.50
2023-02-16T20:04:22.876Z,80.60
2023-02-16T20:09:24.986Z,80.30
2023-02-16T20:14:26.632Z,79.40
2023-02-16T20:19:28.285Z,78.40
2023-02-16T20:24:29.968Z,78.50
2023-02-16T20:29:32.234Z,78.70
2023-02-16T20:34:34.076Z,78.30
2023-02-16T20:39:35.828Z,77.50
2023-02-16T20:44:37.802Z,76.80
2023-02-16T20:49:39.635Z,76.50
2023-02-16T20:54:41.654Z,76.10
2023-02-16T20:59:43.330Z,76.40
2023-02-16T21:04:45.000Z,75.90
2023-02-16T21:09:46.689Z,75.70
2023-02-16T21:14:48.346Z,75.70
2023-02-16T21:19:50.025Z,75.70
2023-02-16T21:24:52.241Z,75.50
2023-02-16T21:29:54.040Z,75.40
2023-02-16T21:34:56.338Z,75.00
2023-02-16T21:40:16.846Z,75.20
2023-02-16T21:45:18.796Z,75.60
2023-02-16T21:50:20.474Z,75.40
2023-02-16T21:55:40.883Z,75.30
2023-02-16T22:00:43.921Z,75.20
2023-02-16T22:05:46.023Z,74.80
2023-02-16T22:10:47.810Z,75.00
2023-02-16T22:15:49.482Z,75.30
2023-02-16T22:20:51.221Z,74.20
2023-02-16T22:25:53.052Z,74.70
2023-02-16T22:30:54.822Z,74.50
2023-02-16T22:35:56.483Z,73.80
2023-02-16T22:40:58.177Z,73.80
2023-02-16T22:45:59.981Z,73.60
2023-02-16T22:51:04.497Z,73.20
2023-02-16T22:56:07.876Z,72.70
2023-02-16T23:01:15.116Z,73.30
2023-02-16T23:06:19.575Z,72.90
2023-02-16T23:11:21.415Z,73.80
2023-02-16T23:16:25.696Z,73.20
2023-02-16T23:21:30.445Z,73.60
2023-02-16T23:26:32.553Z,73.70
2023-02-16T23:31:36.405Z,73.80
2023-02-16T23:36:38.920Z,73.60
2023-02-16T23:41:41.163Z,74.50
2023-02-16T23:46:43.024Z,74.70
2023-02-16T23:51:44.703Z,74.90
2023-02-16T23:56:46.436Z,75.00
